createdAt,value
2023-11-25T00:01:59.943Z,79.83
2023-11-25T00:04:30.095Z,79.90
2023-11-25T00:07:00.163Z,79.99
2023-11-25T00:09:30.201Z,80.14
2023-11-25T00:12:02.915Z,80.18
2023-11-25T00:14:33.044Z,80.12
2023-11-25T00:17:03.170Z,80.00
2023-11-25T00:19:33.259Z,80.24
2023-11-25T00:22:03.399Z,80.32
2023-11-25T00:24:33.473Z,80.19
2023-11-25T00:27:06.175Z,80.39
2023-11-25T00:29:36.223Z,80.38
2023-11-25T00:32:06.376Z,80.70
2023-11-25T00:34:36.423Z,80.56
2023-11-25T00:37:07.729Z,80.82
2023-11-25T00:39:37.990Z,80.64
2023-11-25T00:42:11.666Z,80.78
2023-11-25T00:44:41.982Z,81.06
2023-11-25T00:47:14.688Z,81.00
2023-11-25T00:49:46.299Z,81.16
2023-11-25T00:52:16.381Z,81.10
2023-11-25T00:54:46.796Z,81.21
2023-11-25T00:57:19.448Z,81.32
2023-11-25T00:59:49.600Z,81.49
2023-11-25T01:02:19.852Z,81.39
2023-11-25T01:04:50.239Z,81.81
2023-11-25T01:07:21.883Z,81.78
2023-11-25T01:09:52.240Z,81.64
2023-11-25T01:12:24.966Z,81.59
2023-11-25T01:14:55.403Z,81.55
2023-11-25T01:17:27.599Z,81.79
2023-11-25T01:19:57.851Z,81.75
2023-11-25T01:22:28.037Z,81.81
2023-11-25T01:24:58.096Z,81.87
2023-11-25T01:27:30.793Z,81.78
2023-11-25T01:30:01.305Z,82.03
2023-11-25T01:32:31.525Z,82.14
2023-11-25T01:34:59.057Z,81.96
2023-11-25T01:37:31.215Z,82.22
2023-11-25T01:40:01.437Z,82.31
2023-11-25T01:42:34.141Z,82.26
2023-11-25T01:45:04.322Z,82.34
2023-11-25T01:47:35.323Z,82.31
2023-11-25T01:50:07.391Z,82.45
2023-11-25T01:52:39.168Z,82.54
2023-11-25T01:55:10.688Z,82.33
2023-11-25T01:57:43.546Z,82.42
2023-11-25T02:00:16.569Z,82.25
2023-11-25T02:02:46.963Z,82.42
2023-11-25T02:05:17.383Z,82.46
2023-11-25T02:07:47.735Z,82.53
2023-11-25T02:10:17.933Z,82.55
2023-11-25T02:12:50.679Z,82.39
2023-11-25T02:15:20.771Z,82.33
2023-11-25T02:17:52.139Z,82.42
2023-11-25T02:20:36.836Z,82.12
2023-11-25T02:23:20.090Z,82.05
2023-11-25T02:25:50.889Z,82.22
2023-11-25T02:28:21.714Z,82.14
2023-11-25T02:30:52.957Z,82.17
2023-11-25T02:33:23.400Z,82.19
2023-11-25T02:35:53.702Z,82.15
2023-11-25T02:38:26.344Z,82.14
2023-11-25T02:40:56.401Z,82.18
2023-11-25T02:43:27.706Z,82.08
2023-11-25T02:45:57.859Z,82.26
2023-11-25T02:48:27.985Z,82.08
2023-11-25T02:50:58.165Z,82.07
2023-11-25T02:53:31.526Z,82.01
2023-11-25T02:56:01.582Z,82.04
2023-11-25T02:58:33.746Z,81.89
2023-11-25T03:01:09.462Z,81.74
2023-11-25T03:03:44.114Z,81.59
2023-11-25T03:06:14.343Z,81.73
2023-11-25T03:08:47.207Z,81.58
2023-11-25T03:11:22.527Z,81.43
2023-11-25T03:13:52.965Z,81.43
2023-11-25T03:16:26.267Z,81.34
2023-11-25T03:18:56.582Z,81.29
2023-11-25T03:21:26.630Z,81.28
2023-11-25T03:24:00.733Z,81.17
2023-11-25T03:26:35.126Z,81.29
2023-11-25T03:29:05.236Z,81.37
2023-11-25T03:31:36.661Z,81.30
2023-11-25T03:34:06.900Z,81.10
2023-11-25T03:36:37.021Z,81.25
2023-11-25T03:39:11.238Z,81.14
2023-11-25T03:41:41.368Z,81.20
2023-11-25T03:44:11.564Z,81.29
2023-11-25T03:46:44.591Z,81.22
2023-11-25T03:49:14.860Z,81.16
2023-11-25T03:51:45.328Z,81.33
2023-11-25T03:54:18.022Z,81.31
2023-11-25T03:56:48.071Z,81.22
2023-11-25T03:59:18.906Z,81.33
2023-11-25T04:01:49.254Z,81.49
2023-11-25T04:04:19.555Z,81.47
2023-11-25T04:06:51.362Z,81.68
2023-11-25T04:09:24.342Z,81.66
2023-11-25T04:11:54.907Z,81.65
2023-11-25T04:14:26.970Z,81.63
2023-11-25T04:16:57.634Z,81.63
2023-11-25T04:19:28.418Z,81.53
2023-11-25T04:22:00.295Z,81.62
2023-11-25T04:24:35.848Z,81.64
2023-11-25T04:27:07.110Z,81.32
2023-11-25T04:29:37.169Z,81.47
2023-11-25T04:32:08.182Z,81.66
2023-11-25T04:34:38.371Z,81.78
2023-11-25T04:37:08.977Z,81.91
2023-11-25T04:39:41.661Z,81.81
2023-11-25T04:42:12.014Z,81.98
2023-11-25T04:44:42.018Z,81.97
2023-11-25T04:47:12.463Z,81.96
2023-11-25T04:49:44.101Z,82.07
2023-11-25T04:52:14.857Z,82.09
2023-11-25T04:54:48.051Z,82.24
2023-11-25T04:57:19.505Z,82.25
2023-11-25T04:59:49.608Z,82.52
2023-11-25T05:02:21.611Z,82.40
2023-11-25T05:04:51.860Z,82.59
2023-11-25T05:07:22.984Z,82.61
2023-11-25T05:09:55.841Z,82.50
2023-11-25T05:12:26.161Z,82.60
2023-11-25T05:14:56.256Z,82.61
2023-11-25T05:17:27.753Z,82.80
2023-11-25T05:19:58.150Z,82.87
2023-11-25T05:22:29.958Z,82.91
2023-11-25T05:25:03.544Z,82.98
2023-11-25T05:27:33.920Z,83.12
2023-11-25T05:30:04.365Z,83.04
2023-11-25T05:32:34.529Z,83.03
2023-11-25T05:35:06.961Z,83.18
2023-11-25T05:37:37.072Z,83.07
2023-11-25T05:40:13.067Z,83.10
2023-11-25T05:42:49.664Z,83.17
2023-11-25T05:45:21.934Z,83.02
2023-11-25T05:47:52.603Z,83.35
2023-11-25T05:50:23.949Z,83.32
2023-11-25T05:52:54.437Z,83.29
2023-11-25T05:55:27.891Z,83.47
2023-11-25T05:58:00.461Z,83.32
2023-11-25T06:00:31.611Z,83.37
2023-11-25T06:03:01.714Z,83.37
2023-11-25T06:05:31.935Z,83.27
2023-11-25T06:08:01.961Z,82.98
2023-11-25T06:10:34.628Z,83.29
2023-11-25T06:13:05.701Z,83.71
2023-11-25T06:15:35.797Z,83.63
2023-11-25T06:18:05.984Z,83.38
2023-11-25T06:20:36.080Z,83.21
2023-11-25T06:23:06.093Z,83.20
2023-11-25T06:25:38.908Z,83.04
2023-11-25T06:28:09.045Z,82.81
2023-11-25T06:30:40.526Z,82.63
2023-11-25T06:33:10.642Z,82.56
2023-11-25T06:35:40.750Z,82.62
2023-11-25T06:38:10.870Z,82.56
2023-11-25T06:40:43.870Z,82.50
2023-11-25T06:43:14.603Z,82.38
2023-11-25T06:45:45.587Z,82.08
2023-11-25T06:48:17.383Z,82.13
2023-11-25T06:50:47.511Z,82.34
2023-11-25T06:53:17.733Z,82.34
2023-11-25T06:55:50.540Z,82.42
2023-11-25T06:58:20.904Z,82.28
2023-11-25T07:00:51.220Z,82.44
2023-11-25T07:03:21.355Z,82.16
2023-11-25T07:05:51.554Z,82.17
2023-11-25T07:08:21.658Z,82.38
2023-11-25T07:11:00.688Z,82.33
2023-11-25T07:13:31.820Z,82.42
2023-11-25T07:16:03.426Z,82.43
2023-11-25T07:18:33.535Z,82.36
2023-11-25T07:21:04.303Z,82.41
2023-11-25T07:23:34.499Z,82.47
2023-11-25T07:26:07.250Z,82.68
2023-11-25T07:28:37.340Z,82.74
2023-11-25T07:31:08.932Z,82.71
2023-11-25T07:33:38.973Z,82.79
2023-11-25T07:36:10.385Z,82.46
2023-11-25T07:38:40.438Z,82.28
2023-11-25T07:41:19.151Z,82.45
2023-11-25T07:43:49.171Z,82.74
2023-11-25T07:46:19.335Z,82.75
2023-11-25T07:48:49.935Z,82.56
2023-11-25T07:51:20.530Z,82.30
2023-11-25T07:53:50.709Z,82.16
2023-11-25T07:56:23.501Z,81.85
2023-11-25T07:58:53.598Z,81.75
2023-11-25T08:01:24.472Z,80.91
2023-11-25T08:03:54.795Z,80.53
2023-11-25T08:06:26.980Z,80.33
2023-11-25T08:08:57.107Z,79.23
2023-11-25T08:11:36.383Z,78.26
2023-11-25T08:14:06.882Z,78.42
2023-11-25T08:16:37.359Z,78.75
2023-11-25T08:19:08.018Z,77.92
2023-11-25T08:21:39.349Z,77.15
2023-11-25T08:24:10.992Z,76.73
2023-11-25T08:26:43.970Z,76.36
2023-11-25T08:29:17.162Z,75.81
2023-11-25T08:31:47.604Z,74.93
2023-11-25T08:34:17.749Z,73.42
2023-11-25T08:36:54.191Z,72.21
2023-11-25T08:39:27.006Z,69.94
2023-11-25T08:42:00.475Z,69.29
2023-11-25T08:44:30.529Z,67.38
2023-11-25T08:47:00.814Z,66.64
2023-11-25T08:49:31.142Z,64.89
2023-11-25T08:52:01.240Z,64.70
2023-11-25T08:54:38.077Z,63.44
2023-11-25T08:57:12.809Z,61.96
2023-11-25T08:59:43.002Z,61.07
2023-11-25T09:02:14.390Z,60.12
2023-11-25T09:04:44.542Z,59.06
2023-11-25T09:07:16.069Z,58.64
2023-11-25T09:09:51.068Z,58.41
2023-11-25T09:12:23.909Z,59.61
2023-11-25T09:14:57.205Z,60.67
2023-11-25T09:17:27.323Z,61.39
2023-11-25T09:19:57.483Z,60.88
2023-11-25T09:22:27.725Z,60.94
2023-11-25T09:24:57.887Z,61.05
2023-11-25T09:27:30.638Z,61.65
2023-11-25T09:30:00.753Z,62.46
2023-11-25T09:32:30.929Z,62.54
2023-11-25T09:35:01.462Z,62.57
2023-11-25T09:37:31.707Z,62.93
2023-11-25T09:40:04.393Z,63.18
2023-11-25T09:42:37.628Z,63.48
2023-11-25T09:45:10.631Z,63.87
2023-11-25T09:47:41.775Z,64.22
2023-11-25T09:50:14.660Z,64.00
2023-11-25T09:52:50.866Z,64.32
2023-11-25T09:55:25.340Z,64.31
2023-11-25T09:58:03.342Z,64.26
2023-11-25T10:00:34.928Z,63.28
2023-11-25T10:03:07.480Z,62.88
2023-11-25T10:05:37.684Z,63.02
2023-11-25T10:08:08.447Z,62.99
2023-11-25T10:10:38.786Z,63.31
2023-11-25T10:13:17.029Z,63.71
2023-11-25T10:15:49.811Z,63.48
2023-11-25T10:18:19.894Z,63.49
2023-11-25T10:20:52.845Z,63.43
2023-11-25T10:23:25.475Z,63.38
2023-11-25T10:25:55.995Z,63.92
2023-11-25T10:28:34.197Z,64.26
2023-11-25T10:31:05.896Z,64.29
2023-11-25T10:33:38.912Z,64.46
2023-11-25T10:36:10.017Z,65.01
2023-11-25T10:38:43.794Z,64.62
2023-11-25T10:41:17.106Z,64.98
2023-11-25T10:43:51.213Z,64.54
2023-11-25T10:46:21.369Z,65.58
2023-11-25T10:48:53.369Z,65.69
2023-11-25T10:51:24.251Z,65.64
2023-11-25T10:53:55.365Z,65.71
2023-11-25T10:56:26.574Z,65.68
2023-11-25T10:59:00.273Z,65.45
2023-11-25T11:01:35.724Z,65.65
2023-11-25T11:04:13.198Z,65.61
2023-11-25T11:06:52.004Z,65.83
2023-11-25T11:09:23.978Z,65.43
2023-11-25T11:12:08.434Z,65.86
2023-11-25T11:14:48.685Z,66.18
2023-11-25T11:17:28.796Z,66.61
2023-11-25T11:20:02.262Z,67.36
2023-11-25T11:22:32.651Z,67.64
2023-11-25T11:25:14.022Z,67.83
2023-11-25T11:27:50.602Z,68.07
2023-11-25T11:30:32.625Z,68.34
2023-11-25T11:33:03.581Z,68.43
2023-11-25T11:35:41.471Z,68.82
2023-11-25T11:38:27.854Z,69.09
2023-11-25T11:40:59.699Z,69.68
2023-11-25T11:43:30.453Z,69.77
2023-11-25T11:46:05.709Z,69.73
2023-11-25T11:48:35.820Z,69.85
2023-11-25T11:51:06.002Z,70.08
2023-11-25T11:53:36.129Z,70.79
2023-11-25T11:56:06.553Z,70.50
2023-11-25T11:58:36.843Z,70.66
2023-11-25T12:01:15.802Z,70.73
2023-11-25T12:03:46.042Z,70.94
2023-11-25T12:06:18.039Z,71.16
2023-11-25T12:08:48.668Z,71.36
2023-11-25T12:11:21.121Z,71.47
2023-11-25T12:13:51.299Z,71.76
2023-11-25T12:16:24.286Z,72.03
2023-11-25T12:18:54.993Z,72.07
2023-11-25T12:21:26.866Z,72.46
2023-11-25T12:23:57.021Z,73.25
2023-11-25T12:26:29.889Z,72.99
2023-11-25T12:29:24.274Z,72.79
2023-11-25T12:31:57.172Z,73.00
2023-11-25T12:34:27.396Z,73.21
2023-11-25T12:36:57.837Z,72.97
2023-11-25T12:39:27.908Z,72.99
2023-11-25T12:41:58.107Z,72.88
2023-11-25T12:44:28.347Z,73.21
2023-11-25T12:47:10.065Z,73.25
2023-11-25T12:49:40.216Z,73.60
2023-11-25T12:52:10.388Z,73.87
2023-11-25T12:54:48.111Z,74.06
2023-11-25T12:57:19.291Z,74.12
2023-11-25T12:59:49.648Z,74.27
2023-11-25T13:02:22.910Z,74.62
2023-11-25T13:04:54.010Z,74.96
2023-11-25T13:07:34.568Z,74.60
2023-11-25T13:10:05.481Z,74.77
2023-11-25T13:12:37.851Z,74.70
2023-11-25T13:15:10.482Z,75.24
2023-11-25T13:17:43.610Z,75.01
2023-11-25T13:20:15.408Z,74.78
2023-11-25T13:22:45.986Z,74.95
2023-11-25T13:25:20.682Z,75.19
2023-11-25T13:27:50.891Z,75.00
2023-11-25T13:30:21.419Z,75.22
2023-11-25T13:32:56.366Z,75.07
2023-11-25T13:35:26.706Z,75.16
2023-11-25T13:37:57.179Z,74.96
2023-11-25T13:40:31.296Z,75.19
2023-11-25T13:43:01.445Z,75.25
2023-11-25T13:45:32.686Z,75.19
2023-11-25T13:48:06.654Z,75.50
2023-11-25T13:50:37.813Z,75.75
2023-11-25T13:53:09.570Z,75.81
2023-11-25T13:55:44.688Z,76.25
2023-11-25T13:58:17.118Z,76.23
2023-11-25T14:00:49.929Z,76.33
2023-11-25T14:03:22.789Z,76.52
2023-11-25T14:05:54.811Z,76.46
2023-11-25T14:08:29.654Z,76.60
2023-11-25T14:10:59.941Z,76.75
2023-11-25T14:13:32.989Z,76.39
2023-11-25T14:16:03.361Z,76.34
2023-11-25T14:18:36.034Z,76.54
2023-11-25T14:21:07.943Z,76.59
2023-11-25T14:23:38.019Z,76.52
2023-11-25T14:26:08.268Z,76.08
2023-11-25T14:28:39.237Z,76.36
2023-11-25T14:31:10.332Z,76.53
2023-11-25T14:33:43.344Z,76.81
2023-11-25T14:36:15.255Z,77.00
2023-11-25T14:38:47.696Z,76.92
2023-11-25T14:41:24.132Z,76.43
2023-11-25T14:43:54.876Z,76.24
2023-11-25T14:46:25.361Z,76.42
2023-11-25T14:48:58.049Z,76.58
2023-11-25T14:51:28.181Z,76.59
2023-11-25T14:53:58.250Z,76.41
2023-11-25T14:56:28.369Z,76.27
2023-11-25T14:58:58.497Z,76.59
2023-11-25T15:01:28.713Z,76.95
2023-11-25T15:04:01.605Z,76.99
2023-11-25T15:06:35.225Z,76.76
2023-11-25T15:09:05.422Z,76.87
2023-11-25T15:11:36.352Z,76.49
2023-11-25T15:14:06.480Z,76.50
2023-11-25T15:16:36.674Z,76.43
2023-11-25T15:19:09.430Z,76.64
2023-11-25T15:21:39.552Z,76.98
2023-11-25T15:24:11.388Z,76.61
2023-11-25T15:26:46.023Z,76.53
2023-11-25T15:29:16.970Z,76.99
2023-11-25T15:31:48.305Z,77.14
2023-11-25T15:34:21.841Z,77.19
2023-11-25T15:36:51.967Z,76.91
2023-11-25T15:39:27.754Z,77.22
2023-11-25T15:41:57.994Z,77.34
2023-11-25T15:44:28.038Z,77.24
2023-11-25T15:46:58.162Z,77.23
2023-11-25T15:49:30.873Z,77.32
2023-11-25T15:52:01.096Z,77.46
2023-11-25T15:54:32.742Z,77.36
2023-11-25T15:57:03.215Z,77.42
2023-11-25T15:59:35.950Z,77.40
2023-11-25T16:02:06.310Z,77.03
2023-11-25T16:04:40.078Z,76.84
2023-11-25T16:07:14.435Z,77.28
2023-11-25T16:09:45.613Z,77.00
2023-11-25T16:12:17.821Z,77.05
2023-11-25T16:14:48.149Z,77.25
2023-11-25T16:17:20.366Z,77.14
2023-11-25T16:19:53.418Z,77.23
2023-11-25T16:22:23.565Z,77.17
2023-11-25T16:24:53.796Z,77.39
2023-11-25T16:27:24.050Z,77.67
2023-11-25T16:29:56.231Z,77.67
2023-11-25T16:32:26.776Z,77.45
2023-11-25T16:34:59.653Z,77.21
2023-11-25T16:37:30.351Z,77.30
2023-11-25T16:40:01.762Z,77.53
2023-11-25T16:42:32.497Z,77.62
2023-11-25T16:45:02.616Z,77.41
2023-11-25T16:47:34.446Z,77.39
2023-11-25T16:50:09.197Z,77.51
2023-11-25T16:52:39.488Z,77.48
2023-11-25T16:55:10.539Z,77.53
2023-11-25T16:57:41.112Z,77.73
2023-11-25T17:00:17.765Z,77.92
2023-11-25T17:02:48.236Z,77.80
2023-11-25T17:05:21.174Z,77.73
2023-11-25T17:07:51.326Z,77.84
2023-11-25T17:10:22.679Z,77.81
2023-11-25T17:12:52.769Z,77.70
2023-11-25T17:15:22.808Z,77.96
2023-11-25T17:17:52.968Z,77.94
2023-11-25T17:20:25.914Z,77.99
2023-11-25T17:22:58.504Z,77.95
2023-11-25T17:25:31.584Z,77.97
2023-11-25T17:28:02.206Z,77.61
2023-11-25T17:30:36.611Z,77.84
2023-11-25T17:33:07.684Z,78.15
2023-11-25T17:35:40.663Z,78.09
2023-11-25T17:38:10.823Z,78.29
2023-11-25T17:40:41.216Z,78.41
2023-11-25T17:43:11.349Z,78.46
2023-11-25T17:45:44.360Z,78.54
2023-11-25T17:48:14.417Z,78.81
2023-11-25T17:50:47.824Z,79.07
2023-11-25T17:53:20.713Z,78.99
2023-11-25T17:55:50.793Z,79.70
2023-11-25T17:58:21.011Z,79.48
2023-11-25T18:00:52.550Z,78.97
2023-11-25T18:03:24.448Z,78.76
2023-11-25T18:05:57.601Z,78.63
2023-11-25T18:08:30.168Z,78.86
2023-11-25T18:11:00.300Z,78.92
2023-11-25T18:13:30.486Z,79.06
2023-11-25T18:16:00.609Z,79.24
2023-11-25T18:18:31.522Z,79.04
2023-11-25T18:21:04.358Z,79.06
2023-11-25T18:23:35.292Z,79.05
2023-11-25T18:26:05.834Z,79.34
2023-11-25T18:28:39.284Z,79.18
2023-11-25T18:31:10.029Z,78.90
2023-11-25T18:33:40.327Z,78.91
2023-11-25T18:36:13.223Z,78.78
2023-11-25T18:38:43.792Z,78.80
2023-11-25T18:41:13.938Z,78.68
2023-11-25T18:43:44.104Z,78.48
2023-11-25T18:46:14.435Z,78.11
2023-11-25T18:48:44.951Z,77.78
2023-11-25T18:51:17.880Z,77.47
2023-11-25T18:53:47.992Z,77.28
2023-11-25T18:56:18.231Z,77.11
2023-11-25T18:58:48.347Z,76.87
2023-11-25T19:01:33.119Z,76.79
2023-11-25T19:04:04.024Z,76.23
2023-11-25T19:06:48.256Z,76.29
2023-11-25T19:09:18.955Z,76.13
2023-11-25T19:11:50.324Z,76.13
2023-11-25T19:14:20.994Z,76.17
2023-11-25T19:16:51.169Z,76.23
2023-11-25T19:19:21.567Z,76.12
2023-11-25T19:21:54.232Z,76.04
2023-11-25T19:24:24.270Z,76.09
2023-11-25T19:26:54.508Z,75.88
2023-11-25T19:29:24.564Z,75.79
2023-11-25T19:31:54.670Z,76.03
2023-11-25T19:34:24.760Z,75.98
2023-11-25T19:36:57.576Z,75.96
2023-11-25T19:39:43.300Z,75.87
2023-11-25T19:42:13.479Z,75.69
2023-11-25T19:44:43.565Z,75.57
2023-11-25T19:47:13.946Z,75.58
2023-11-25T19:49:44.083Z,75.42
2023-11-25T19:52:16.851Z,75.38
2023-11-25T19:54:46.851Z,75.39
2023-11-25T19:57:17.003Z,75.45
2023-11-25T19:59:48.671Z,75.67
2023-11-25T20:02:18.939Z,75.55
2023-11-25T20:04:49.280Z,75.42
2023-11-25T20:07:22.068Z,75.29
2023-11-25T20:09:52.805Z,75.35
2023-11-25T20:12:23.141Z,75.36
2023-11-25T20:14:53.629Z,75.34
2023-11-25T20:17:25.049Z,75.37
2023-11-25T20:19:57.644Z,75.44
2023-11-25T20:22:30.866Z,75.76
2023-11-25T20:25:02.545Z,75.62
2023-11-25T20:27:32.852Z,75.83
2023-11-25T20:30:02.994Z,75.90
2023-11-25T20:32:33.857Z,75.90
2023-11-25T20:35:04.918Z,75.98
2023-11-25T20:37:37.695Z,76.00
2023-11-25T20:40:10.003Z,75.70
2023-11-25T20:42:42.643Z,75.53
2023-11-25T20:45:13.253Z,75.36
2023-11-25T20:47:43.410Z,75.35
2023-11-25T20:50:14.109Z,75.21
2023-11-25T20:52:48.121Z,75.08
2023-11-25T20:55:18.427Z,75.05
2023-11-25T20:57:48.595Z,75.07
2023-11-25T21:00:19.359Z,75.01
2023-11-25T21:02:49.689Z,74.81
2023-11-25T21:05:20.876Z,74.72
2023-11-25T21:07:53.916Z,74.58
2023-11-25T21:10:24.043Z,74.96
2023-11-25T21:12:54.104Z,75.32
2023-11-25T21:15:26.026Z,75.71
2023-11-25T21:17:56.160Z,75.80
2023-11-25T21:20:26.223Z,75.68
2023-11-25T21:22:59.003Z,75.57
2023-11-25T21:25:29.103Z,75.66
2023-11-25T21:27:59.373Z,75.71
2023-11-25T21:30:29.518Z,75.54
2023-11-25T21:33:00.012Z,75.67
2023-11-25T21:35:30.633Z,75.73
2023-11-25T21:38:05.192Z,75.68
2023-11-25T21:40:35.785Z,75.49
2023-11-25T21:43:05.880Z,75.40
2023-11-25T21:45:37.205Z,75.55
2023-11-25T21:48:07.721Z,75.53
2023-11-25T21:50:37.891Z,75.38
2023-11-25T21:53:10.691Z,75.25
2023-11-25T21:55:40.879Z,75.44
2023-11-25T21:58:11.008Z,75.08
2023-11-25T22:00:41.099Z,75.09
2023-11-25T22:03:11.263Z,75.18
2023-11-25T22:05:41.619Z,75.28
2023-11-25T22:08:14.307Z,74.95
2023-11-25T22:10:44.742Z,74.70
2023-11-25T22:13:14.970Z,74.85
2023-11-25T22:15:45.250Z,74.58
2023-11-25T22:18:15.513Z,74.49
2023-11-25T22:20:45.658Z,74.24
2023-11-25T22:23:18.549Z,74.43
2023-11-25T22:26:02.465Z,74.20
2023-11-25T22:28:32.677Z,74.06
2023-11-25T22:31:05.936Z,74.02
2023-11-25T22:33:33.615Z,73.84
2023-11-25T22:36:04.401Z,73.92
2023-11-25T22:38:51.450Z,73.56
2023-11-25T22:41:22.828Z,73.56
2023-11-25T22:43:55.014Z,73.70
2023-11-25T22:46:28.111Z,73.51
2023-11-25T22:48:59.507Z,73.38
2023-11-25T22:51:29.655Z,73.21
2023-11-25T22:54:02.307Z,73.29
2023-11-25T22:56:32.759Z,73.47
2023-11-25T22:59:03.078Z,73.46
2023-11-25T23:01:35.533Z,73.40
2023-11-25T23:04:07.047Z,73.17
2023-11-25T23:06:40.578Z,72.98
2023-11-25T23:09:16.890Z,72.94
2023-11-25T23:11:46.974Z,72.69
2023-11-25T23:14:17.192Z,72.55
2023-11-25T23:16:47.321Z,72.54
2023-11-25T23:19:17.855Z,72.34
2023-11-25T23:21:48.099Z,72.23
2023-11-25T23:24:21.334Z,72.25
2023-11-25T23:26:52.448Z,72.06
2023-11-25T23:29:25.526Z,71.86
2023-11-25T23:31:58.958Z,71.89
2023-11-25T23:34:29.097Z,71.74
2023-11-25T23:36:59.381Z,71.65
2023-11-25T23:39:32.181Z,71.61
2023-11-25T23:42:02.293Z,71.26
2023-11-25T23:44:34.453Z,71.19
2023-11-25T23:47:04.548Z,71.12
2023-11-25T23:49:34.641Z,71.12
2023-11-25T23:52:04.678Z,70.81
2023-11-25T23:54:41.999Z,70.94
2023-11-25T23:57:12.308Z,70.67
2023-11-25T23:59:42.612Z,70.61
